sensor_id;sensor_type;location;lat;lon;timestamp;pressure;altitude;pressure_sealevel;temperature;humidity
54306;BME280;66145;45.188;5.712;2023-07-31T00:01:44;99435.25;;;22.73;51.34
54306;BME280;66145;45.188;5.712;2023-07-31T00:04:10;99435.25;;;22.73;50.92
54306;BME280;66145;45.188;5.712;2023-07-31T00:06:35;99447.09;;;22.73;51.09
54306;BME280;66145;45.188;5.712;2023-07-31T00:09:01;99437.88;;;22.69;51.27
54306;BME280;66145;45.188;5.712;2023-07-31T00:11:26;99438.69;;;22.70;51.11
54306;BME280;66145;45.188;5.712;2023-07-31T00:13:53;99431.22;;;22.70;51.20
54306;BME280;66145;45.188;5.712;2023-07-31T00:16:18;99421.78;;;22.71;50.98
54306;BME280;66145;45.188;5.712;2023-07-31T00:18:44;99416.50;;;22.66;51.22
54306;BME280;66145;45.188;5.712;2023-07-31T00:21:09;99421.00;;;22.71;50.84
54306;BME280;66145;45.188;5.712;2023-07-31T00:23:34;99409.84;;;22.67;51.25
54306;BME280;66145;45.188;5.712;2023-07-31T00:26:00;99415.00;;;22.69;51.32
54306;BME280;66145;45.188;5.712;2023-07-31T00:28:26;99410.16;;;22.66;51.17
54306;BME280;66145;45.188;5.712;2023-07-31T00:30:52;99396.72;;;22.64;51.16
54306;BME280;66145;45.188;5.712;2023-07-31T00:33:18;99374.47;;;22.48;51.79
54306;BME280;66145;45.188;5.712;2023-07-31T00:35:43;99395.00;;;22.59;52.31
54306;BME280;66145;45.188;5.712;2023-07-31T00:38:08;99387.47;;;22.47;52.50
54306;BME280;66145;45.188;5.712;2023-07-31T00:40:37;99362.22;;;22.37;52.48
54306;BME280;66145;45.188;5.712;2023-07-31T00:43:03;99392.09;;;22.56;52.96
54306;BME280;66145;45.188;5.712;2023-07-31T00:45:28;99392.78;;;22.53;53.20
54306;BME280;66145;45.188;5.712;2023-07-31T00:47:54;99396.44;;;22.57;53.24
54306;BME280;66145;45.188;5.712;2023-07-31T00:50:19;99391.28;;;22.55;53.40
54306;BME280;66145;45.188;5.712;2023-07-31T00:52:44;99392.25;;;22.59;53.50
54306;BME280;66145;45.188;5.712;2023-07-31T00:55:10;99392.09;;;22.56;53.47
54306;BME280;66145;45.188;5.712;2023-07-31T00:57:36;99393.38;;;22.58;53.51
54306;BME280;66145;45.188;5.712;2023-07-31T01:00:04;99397.28;;;22.57;53.50
54306;BME280;66145;45.188;5.712;2023-07-31T01:02:30;99385.66;;;22.52;53.43
54306;BME280;66145;45.188;5.712;2023-07-31T01:04:55;99387.03;;;22.58;53.67
54306;BME280;66145;45.188;5.712;2023-07-31T01:07:59;99389.47;;;22.59;53.68
54306;BME280;66145;45.188;5.712;2023-07-31T01:10:48;99392.78;;;22.53;53.59
54306;BME280;66145;45.188;5.712;2023-07-31T01:13:15;99380.13;;;22.52;53.74
54306;BME280;66145;45.188;5.712;2023-07-31T01:15:40;99385.66;;;22.52;53.76
54306;BME280;66145;45.188;5.712;2023-07-31T01:18:05;99391.28;;;22.55;53.71
54306;BME280;66145;45.188;5.712;2023-07-31T01:20:31;99389.31;;;22.56;53.80
54306;BME280;66145;45.188;5.712;2023-07-31T01:23:26;99396.94;;;22.59;53.84
54306;BME280;66145;45.188;5.712;2023-07-31T01:26:12;99404.72;;;22.57;53.86
54306;BME280;66145;45.188;5.712;2023-07-31T01:28:55;99403.72;;;22.61;53.89
54306;BME280;66145;45.188;5.712;2023-07-31T01:31:23;99395.78;;;22.60;53.76
54306;BME280;66145;45.188;5.712;2023-07-31T01:33:50;99379.31;;;22.51;53.98
54306;BME280;66145;45.188;5.712;2023-07-31T01:36:18;99398.88;;;22.58;53.99
54306;BME280;66145;45.188;5.712;2023-07-31T01:38:43;99393.03;;;22.60;54.03
54306;BME280;66145;45.188;5.712;2023-07-31T01:41:08;99388.19;;;22.57;54.05
54306;BME280;66145;45.188;5.712;2023-07-31T01:43:33;99379.31;;;22.51;54.12
54306;BME280;66145;45.188;5.712;2023-07-31T01:45:59;99378.53;;;22.51;53.89
54306;BME280;66145;45.188;5.712;2023-07-31T01:48:24;99342.34;;;22.31;53.96
54306;BME280;66145;45.188;5.712;2023-07-31T01:50:50;99380.25;;;22.55;54.13
54306;BME280;66145;45.188;5.712;2023-07-31T01:53:15;99385.78;;;22.55;54.11
54306;BME280;66145;45.188;5.712;2023-07-31T01:55:40;99386.56;;;22.56;54.20
54306;BME280;66145;45.188;5.712;2023-07-31T01:58:06;99378.19;;;22.52;54.37
54306;BME280;66145;45.188;5.712;2023-07-31T02:00:31;99373.50;;;22.53;54.36
54306;BME280;66145;45.188;5.712;2023-07-31T02:02:56;99379.91;;;22.57;54.33
54306;BME280;66145;45.188;5.712;2023-07-31T02:05:21;99387.19;;;22.61;54.22
54306;BME280;66145;45.188;5.712;2023-07-31T02:07:47;99366.69;;;22.50;54.35
54306;BME280;66145;45.188;5.712;2023-07-31T02:10:12;99365.06;;;22.49;54.27
54306;BME280;66145;45.188;5.712;2023-07-31T02:12:38;99386.72;;;22.59;54.35
54306;BME280;66145;45.188;5.712;2023-07-31T02:15:03;99387.50;;;22.60;54.34
54306;BME280;66145;45.188;5.712;2023-07-31T02:17:29;99377.03;;;22.53;54.42
54306;BME280;66145;45.188;5.712;2023-07-31T02:19:54;99389.31;;;22.56;54.54
54306;BME280;66145;45.188;5.712;2023-07-31T02:22:20;99372.53;;;22.48;54.32
54306;BME280;66145;45.188;5.712;2023-07-31T02:24:45;99380.38;;;22.59;54.52
54306;BME280;66145;45.188;5.712;2023-07-31T02:27:10;99382.34;;;22.58;54.55
54306;BME280;66145;45.188;5.712;2023-07-31T02:29:36;99374.75;;;22.55;54.45
54306;BME280;66145;45.188;5.712;2023-07-31T02:32:01;99365.41;;;22.47;54.46
54306;BME280;66145;45.188;5.712;2023-07-31T02:34:26;99385.59;;;22.60;54.53
54306;BME280;66145;45.188;5.712;2023-07-31T02:36:51;99368.28;;;22.51;54.41
54306;BME280;66145;45.188;5.712;2023-07-31T02:39:17;99377.97;;;22.57;54.54
54306;BME280;66145;45.188;5.712;2023-07-31T02:41:42;99382.00;;;22.60;54.54
54306;BME280;66145;45.188;5.712;2023-07-31T02:44:07;99369.59;;;22.54;54.50
54306;BME280;66145;45.188;5.712;2023-07-31T02:46:33;99380.38;;;22.59;54.67
54306;BME280;66145;45.188;5.712;2023-07-31T02:48:58;99384.94;;;22.55;54.85
54306;BME280;66145;45.188;5.712;2023-07-31T02:51:23;99367.50;;;22.51;54.33
54306;BME280;66145;45.188;5.712;2023-07-31T02:53:49;99371.72;;;22.48;54.33
54306;BME280;66145;45.188;5.712;2023-07-31T02:56:14;99368.50;;;22.46;54.55
54306;BME280;66145;45.188;5.712;2023-07-31T02:58:40;99356.53;;;22.42;54.40
54306;BME280;66145;45.188;5.712;2023-07-31T03:01:05;99382.66;;;22.57;54.46
54306;BME280;66145;45.188;5.712;2023-07-31T03:03:30;99379.13;;;22.56;54.44
54306;BME280;66145;45.188;5.712;2023-07-31T03:05:56;99373.72;;;22.60;54.67
54306;BME280;66145;45.188;5.712;2023-07-31T03:08:21;99377.31;;;22.60;54.68
54306;BME280;66145;45.188;5.712;2023-07-31T03:10:46;99382.66;;;22.57;54.71
54306;BME280;66145;45.188;5.712;2023-07-31T03:13:12;99389.78;;;22.58;54.82
54306;BME280;66145;45.188;5.712;2023-07-31T03:15:37;99381.69;;;22.61;54.66
54306;BME280;66145;45.188;5.712;2023-07-31T03:18:02;99373.13;;;22.54;54.65
54306;BME280;66145;45.188;5.712;2023-07-31T03:20:28;99391.53;;;22.62;54.70
54306;BME280;66145;45.188;5.712;2023-07-31T03:22:53;99391.09;;;22.60;54.63
54306;BME280;66145;45.188;5.712;2023-07-31T03:25:18;99383.69;;;22.52;54.55
54306;BME280;66145;45.188;5.712;2023-07-31T03:27:43;99396.25;;;22.62;54.61
54306;BME280;66145;45.188;5.712;2023-07-31T03:30:09;99399.00;;;22.62;54.74
54306;BME280;66145;45.188;5.712;2023-07-31T03:32:34;99382.91;;;22.52;54.52
54306;BME280;66145;45.188;5.712;2023-07-31T03:35:00;99369.47;;;22.41;54.68
54306;BME280;66145;45.188;5.712;2023-07-31T03:37:25;99387.38;;;22.56;54.69
54306;BME280;66145;45.188;5.712;2023-07-31T03:39:51;99398.66;;;22.63;54.72
54306;BME280;66145;45.188;5.712;2023-07-31T03:42:16;99378.66;;;22.54;54.52
54306;BME280;66145;45.188;5.712;2023-07-31T03:44:42;99399.13;;;22.66;54.82
54306;BME280;66145;45.188;5.712;2023-07-31T03:47:07;99399.81;;;22.62;54.70
54306;BME280;66145;45.188;5.712;2023-07-31T03:49:32;99409.69;;;22.63;54.47
54306;BME280;66145;45.188;5.712;2023-07-31T03:51:58;99397.16;;;22.54;54.78
54306;BME280;66145;45.188;5.712;2023-07-31T03:54:23;99412.91;;;22.66;54.65
54306;BME280;66145;45.188;5.712;2023-07-31T03:56:49;99396.31;;;22.53;54.59
54306;BME280;66145;45.188;5.712;2023-07-31T03:59:14;99411.19;;;22.61;54.67
54306;BME280;66145;45.188;5.712;2023-07-31T04:01:39;99422.22;;;22.61;54.71
54306;BME280;66145;45.188;5.712;2023-07-31T04:04:05;99420.28;;;22.61;54.71
54306;BME280;66145;45.188;5.712;2023-07-31T04:06:30;99421.41;;;22.60;54.47
54306;BME280;66145;45.188;5.712;2023-07-31T04:08:55;99417.97;;;22.63;54.51
54306;BME280;66145;45.188;5.712;2023-07-31T04:11:21;99409.44;;;22.56;54.35
54306;BME280;66145;45.188;5.712;2023-07-31T04:13:46;99404.47;;;22.50;54.62
54306;BME280;66145;45.188;5.712;2023-07-31T04:16:11;99427.38;;;22.62;54.24
54306;BME280;66145;45.188;5.712;2023-07-31T04:18:37;99408.97;;;22.54;54.69
54306;BME280;66145;45.188;5.712;2023-07-31T04:21:02;99416.34;;;22.62;54.73
54306;BME280;66145;45.188;5.712;2023-07-31T04:23:28;99399.09;;;22.53;54.71
54306;BME280;66145;45.188;5.712;2023-07-31T04:25:53;99395.53;;;22.53;54.81
54306;BME280;66145;45.188;5.712;2023-07-31T04:28:19;99406.81;;;22.60;54.74
54306;BME280;66145;45.188;5.712;2023-07-31T04:30:44;99416.69;;;22.61;54.87
54306;BME280;66145;45.188;5.712;2023-07-31T04:33:09;99415.22;;;22.63;54.85
54306;BME280;66145;45.188;5.712;2023-07-31T04:35:35;99389.75;;;22.45;54.71
54306;BME280;66145;45.188;5.712;2023-07-31T04:38:00;99422.69;;;22.63;55.02
54306;BME280;66145;45.188;5.712;2023-07-31T04:40:25;99415.09;;;22.60;54.79
54306;BME280;66145;45.188;5.712;2023-07-31T04:42:51;99438.22;;;22.68;54.91
54306;BME280;66145;45.188;5.712;2023-07-31T04:45:16;99420.59;;;22.60;54.69
54306;BME280;66145;45.188;5.712;2023-07-31T04:47:42;99412.66;;;22.58;54.88
54306;BME280;66145;45.188;5.712;2023-07-31T04:50:07;99422.22;;;22.61;54.73
54306;BME280;66145;45.188;5.712;2023-07-31T04:52:33;99424.19;;;22.60;54.88
54306;BME280;66145;45.188;5.712;2023-07-31T04:54:58;99440.38;;;22.62;54.97
54306;BME280;66145;45.188;5.712;2023-07-31T04:57:23;99435.81;;;22.66;54.58
54306;BME280;66145;45.188;5.712;2023-07-31T04:59:48;99428.25;;;22.54;54.72
54306;BME280;66145;45.188;5.712;2023-07-31T05:02:14;99441.50;;;22.61;54.80
54306;BME280;66145;45.188;5.712;2023-07-31T05:04:39;99443.78;;;22.59;54.95
54306;BME280;66145;45.188;5.712;2023-07-31T05:07:04;99445.88;;;22.62;54.81
54306;BME280;66145;45.188;5.712;2023-07-31T05:09:30;99428.25;;;22.54;54.87
54306;BME280;66145;45.188;5.712;2023-07-31T05:11:55;99436.81;;;22.61;54.76
54306;BME280;66145;45.188;5.712;2023-07-31T05:14:30;99424.72;;;22.54;54.71
54306;BME280;66145;45.188;5.712;2023-07-31T05:16:55;99433.44;;;22.56;54.69
54306;BME280;66145;45.188;5.712;2023-07-31T05:19:20;99423.91;;;22.53;54.80
54306;BME280;66145;45.188;5.712;2023-07-31T05:21:46;99434.38;;;22.60;54.60
54306;BME280;66145;45.188;5.712;2023-07-31T05:24:11;99430.97;;;22.63;54.80
54306;BME280;66145;45.188;5.712;2023-07-31T05:26:36;99422.09;;;22.57;54.77
54306;BME280;66145;45.188;5.712;2023-07-31T05:29:03;99427.91;;;22.56;54.85
54306;BME280;66145;45.188;5.712;2023-07-31T05:31:28;99439.22;;;22.63;54.80
54306;BME280;66145;45.188;5.712;2023-07-31T05:33:54;99425.44;;;22.63;54.77
54306;BME280;66145;45.188;5.712;2023-07-31T05:36:19;99412.06;;;22.53;54.94
54306;BME280;66145;45.188;5.712;2023-07-31T05:38:44;99430.34;;;22.57;54.79
54306;BME280;66145;45.188;5.712;2023-07-31T05:41:11;99418.03;;;22.55;54.76
54306;BME280;66145;45.188;5.712;2023-07-31T05:43:37;99438.28;;;22.59;54.90
54306;BME280;66145;45.188;5.712;2023-07-31T05:46:02;99438.75;;;22.61;54.74
54306;BME280;66145;45.188;5.712;2023-07-31T05:48:27;99431.75;;;22.63;54.71
54306;BME280;66145;45.188;5.712;2023-07-31T05:50:53;99419.31;;;22.57;54.77
54306;BME280;66145;45.188;5.712;2023-07-31T05:53:18;99439.09;;;22.59;54.80
54306;BME280;66145;45.188;5.712;2023-07-31T05:55:43;99426.94;;;22.60;54.87
54306;BME280;66145;45.188;5.712;2023-07-31T05:58:09;99423.34;;;22.60;54.71
54306;BME280;66145;45.188;5.712;2023-07-31T06:00:34;99421.75;;;22.59;54.73
54306;BME280;66145;45.188;5.712;2023-07-31T06:03:00;99418.03;;;22.55;54.81
54306;BME280;66145;45.188;5.712;2023-07-31T06:05:25;99407.00;;;22.55;55.00
54306;BME280;66145;45.188;5.712;2023-07-31T06:07:51;99408.78;;;22.59;55.05
54306;BME280;66145;45.188;5.712;2023-07-31T06:10:16;99389.91;;;22.40;54.64
54306;BME280;66145;45.188;5.712;2023-07-31T06:12:42;99413.94;;;22.61;54.74
54306;BME280;66145;45.188;5.712;2023-07-31T06:15:07;99413.94;;;22.61;54.89
54306;BME280;66145;45.188;5.712;2023-07-31T06:17:33;99412.00;;;22.61;54.86
54306;BME280;66145;45.188;5.712;2023-07-31T06:19:58;99409.09;;;22.58;54.71
54306;BME280;66145;45.188;5.712;2023-07-31T06:22:23;99404.72;;;22.57;54.93
54306;BME280;66145;45.188;5.712;2023-07-31T06:24:49;99412.78;;;22.62;55.06
54306;BME280;66145;45.188;5.712;2023-07-31T06:27:14;99408.31;;;22.57;54.67
54306;BME280;66145;45.188;5.712;2023-07-31T06:29:39;99415.91;;;22.60;55.13
54306;BME280;66145;45.188;5.712;2023-07-31T06:32:05;99412.31;;;22.60;54.84
54306;BME280;66145;45.188;5.712;2023-07-31T06:34:30;99408.78;;;22.59;54.89
54306;BME280;66145;45.188;5.712;2023-07-31T06:36:58;99410.38;;;22.60;54.88
54306;BME280;66145;45.188;5.712;2023-07-31T06:39:23;99401.19;;;22.56;55.00
54306;BME280;66145;45.188;5.712;2023-07-31T06:41:49;99381.13;;;22.47;54.88
54306;BME280;66145;45.188;5.712;2023-07-31T06:44:14;99376.09;;;22.49;54.87
54306;BME280;66145;45.188;5.712;2023-07-31T06:46:39;99393.03;;;22.60;55.14
54306;BME280;66145;45.188;5.712;2023-07-31T06:49:05;99401.66;;;22.58;54.90
54306;BME280;66145;45.188;5.712;2023-07-31T06:51:30;99412.00;;;22.61;54.87
54306;BME280;66145;45.188;5.712;2023-07-31T06:53:57;99407.94;;;22.59;55.02
54306;BME280;66145;45.188;5.712;2023-07-31T06:56:22;99386.44;;;22.52;54.95
54306;BME280;66145;45.188;5.712;2023-07-31T06:58:48;99380.13;;;22.52;55.03
54306;BME280;66145;45.188;5.712;2023-07-31T07:01:13;99341.97;;;22.32;55.01
54306;BME280;66145;45.188;5.712;2023-07-31T07:03:41;99370.38;;;22.54;55.08
54306;BME280;66145;45.188;5.712;2023-07-31T07:06:06;99371.66;;;22.57;55.06
54306;BME280;66145;45.188;5.712;2023-07-31T07:08:32;99387.19;;;22.61;55.10
54306;BME280;66145;45.188;5.712;2023-07-31T07:10:57;99375.22;;;22.57;55.10
54306;BME280;66145;45.188;5.712;2023-07-31T07:13:23;99350.00;;;22.46;54.94
54306;BME280;66145;45.188;5.712;2023-07-31T07:15:48;99374.09;;;22.58;55.05
54306;BME280;66145;45.188;5.712;2023-07-31T07:18:14;99365.22;;;22.53;55.06
54306;BME280;66145;45.188;5.712;2023-07-31T07:20:40;99377.97;;;22.57;55.28
54306;BME280;66145;45.188;5.712;2023-07-31T07:23:06;99367.81;;;22.49;54.97
54306;BME280;66145;45.188;5.712;2023-07-31T07:25:31;99360.69;;;22.48;55.05
54306;BME280;66145;45.188;5.712;2023-07-31T07:27:57;99349.22;;;22.46;55.16
54306;BME280;66145;45.188;5.712;2023-07-31T07:30:23;99377.63;;;22.59;55.30
54306;BME280;66145;45.188;5.712;2023-07-31T07:32:50;99363.59;;;22.52;55.14
54306;BME280;66145;45.188;5.712;2023-07-31T07:35:15;99378.44;;;22.59;55.19
54306;BME280;66145;45.188;5.712;2023-07-31T07:37:41;99366.34;;;22.52;55.20
54306;BME280;66145;45.188;5.712;2023-07-31T07:40:06;99373.59;;;22.56;55.32
54306;BME280;66145;45.188;5.712;2023-07-31T07:42:32;99380.84;;;22.61;55.13
54306;BME280;66145;45.188;5.712;2023-07-31T07:44:57;99375.22;;;22.57;55.16
54306;BME280;66145;45.188;5.712;2023-07-31T07:47:23;99362.09;;;22.54;54.94
54306;BME280;66145;45.188;5.712;2023-07-31T07:49:48;99333.72;;;22.32;54.75
54306;BME280;66145;45.188;5.712;2023-07-31T07:52:13;99361.75;;;22.56;54.93
54306;BME280;66145;45.188;5.712;2023-07-31T07:54:39;99368.69;;;22.62;55.14
54306;BME280;66145;45.188;5.712;2023-07-31T07:57:04;99369.16;;;22.64;54.80
54306;BME280;66145;45.188;5.712;2023-07-31T07:59:29;99352.50;;;22.60;54.96
54306;BME280;66145;45.188;5.712;2023-07-31T08:01:55;99362.44;;;22.74;54.81
54306;BME280;66145;45.188;5.712;2023-07-31T08:04:20;99357.38;;;22.76;54.69
54306;BME280;66145;45.188;5.712;2023-07-31T08:06:45;99352.88;;;22.71;54.95
54306;BME280;66145;45.188;5.712;2023-07-31T08:09:11;99362.19;;;22.79;55.00
54306;BME280;66145;45.188;5.712;2023-07-31T08:11:36;99346.56;;;22.71;54.53
54306;BME280;66145;45.188;5.712;2023-07-31T08:14:01;99362.56;;;22.77;54.71
54306;BME280;66145;45.188;5.712;2023-07-31T08:16:27;99351.53;;;22.77;54.90
54306;BME280;66145;45.188;5.712;2023-07-31T08:18:52;99338.63;;;22.69;54.64
54306;BME280;66145;45.188;5.712;2023-07-31T08:21:17;99352.34;;;22.78;54.74
54306;BME280;66145;45.188;5.712;2023-07-31T08:23:43;99335.06;;;22.69;54.82
54306;BME280;66145;45.188;5.712;2023-07-31T08:26:14;99339.78;;;22.68;55.04
54306;BME280;66145;45.188;5.712;2023-07-31T08:28:39;99341.84;;;22.71;54.76
54306;BME280;66145;45.188;5.712;2023-07-31T08:31:05;99332.31;;;22.69;54.96
54306;BME280;66145;45.188;5.712;2023-07-31T08:33:30;99339.22;;;22.75;54.78
54306;BME280;66145;45.188;5.712;2023-07-31T08:35:56;99338.22;;;22.79;54.82
54306;BME280;66145;45.188;5.712;2023-07-31T08:38:21;99333.38;;;22.76;54.90
54306;BME280;66145;45.188;5.712;2023-07-31T08:40:50;99319.06;;;22.62;54.67
54306;BME280;66145;45.188;5.712;2023-07-31T08:43:15;99327.06;;;22.55;54.85
54306;BME280;66145;45.188;5.712;2023-07-31T08:45:42;99332.25;;;22.56;54.82
54306;BME280;66145;45.188;5.712;2023-07-31T08:48:08;99307.72;;;22.42;54.34
54306;BME280;66145;45.188;5.712;2023-07-31T08:50:33;99310.34;;;22.39;54.62
54306;BME280;66145;45.188;5.712;2023-07-31T08:52:58;99324.88;;;22.48;53.71
54306;BME280;66145;45.188;5.712;2023-07-31T08:55:24;99304.34;;;22.37;53.64
54306;BME280;66145;45.188;5.712;2023-07-31T08:57:51;99311.81;;;22.36;54.17
54306;BME280;66145;45.188;5.712;2023-07-31T09:00:20;99338.19;;;22.46;53.61
54306;BME280;66145;45.188;5.712;2023-07-31T09:02:54;99322.03;;;22.36;52.62
54306;BME280;66145;45.188;5.712;2023-07-31T09:05:21;99314.06;;;22.43;54.55
54306;BME280;66145;45.188;5.712;2023-07-31T09:07:49;99306.94;;;22.42;55.25
54306;BME280;66145;45.188;5.712;2023-07-31T09:10:15;99309.53;;;22.59;54.90
54306;BME280;66145;45.188;5.712;2023-07-31T09:12:41;99306.56;;;22.64;54.71
54306;BME280;66145;45.188;5.712;2023-07-31T09:15:07;99261.75;;;22.34;54.94
54306;BME280;66145;45.188;5.712;2023-07-31T09:17:35;99297.78;;;22.50;55.46
54306;BME280;66145;45.188;5.712;2023-07-31T09:22:39;99288.72;;;22.50;55.91
54306;BME280;66145;45.188;5.712;2023-07-31T09:25:24;99285.28;;;22.53;56.21
54306;BME280;66145;45.188;5.712;2023-07-31T09:27:53;99278.84;;;22.48;55.79
54306;BME280;66145;45.188;5.712;2023-07-31T09:30:19;99281.22;;;22.50;55.71
54306;BME280;66145;45.188;5.712;2023-07-31T09:32:45;99275.41;;;22.52;55.67
54306;BME280;66145;45.188;5.712;2023-07-31T09:35:21;99264.59;;;22.46;55.89
54306;BME280;66145;45.188;5.712;2023-07-31T09:37:54;99272.19;;;22.50;55.83
54306;BME280;66145;45.188;5.712;2023-07-31T09:40:33;99277.34;;;22.51;55.79
54306;BME280;66145;45.188;5.712;2023-07-31T09:43:03;99269.88;;;22.52;55.84
54306;BME280;66145;45.188;5.712;2023-07-31T09:45:33;99259.41;;;22.45;56.08
54306;BME280;66145;45.188;5.712;2023-07-31T09:47:59;99261.03;;;22.46;56.44
54306;BME280;66145;45.188;5.712;2023-07-31T09:50:24;99262.28;;;22.48;55.61
54306;BME280;66145;45.188;5.712;2023-07-31T09:52:51;99239.84;;;22.38;56.05
54306;BME280;66145;45.188;5.712;2023-07-31T09:55:17;99252.75;;;22.46;56.35
54306;BME280;66145;45.188;5.712;2023-07-31T09:57:46;99242.53;;;22.46;55.91
54306;BME280;66145;45.188;5.712;2023-07-31T10:00:13;99248.16;;;22.50;55.70
54306;BME280;66145;45.188;5.712;2023-07-31T10:02:39;99239.91;;;22.50;55.67
54306;BME280;66145;45.188;5.712;2023-07-31T10:05:06;99234.38;;;22.50;55.79
54306;BME280;66145;45.188;5.712;2023-07-31T10:07:36;99196.03;;;22.24;55.64
54306;BME280;66145;45.188;5.712;2023-07-31T10:10:04;99198.94;;;22.27;56.33
54306;BME280;66145;45.188;5.712;2023-07-31T10:12:32;99226.47;;;22.48;55.98
54306;BME280;66145;45.188;5.712;2023-07-31T10:14:59;99228.88;;;22.50;55.74
54306;BME280;66145;45.188;5.712;2023-07-31T10:17:25;99221.63;;;22.45;55.68
54306;BME280;66145;45.188;5.712;2023-07-31T10:19:51;99227.72;;;22.51;55.81
54306;BME280;66145;45.188;5.712;2023-07-31T10:22:16;99218.19;;;22.48;55.80
54306;BME280;66145;45.188;5.712;2023-07-31T10:24:45;99209.81;;;22.45;55.72
54306;BME280;66145;45.188;5.712;2023-07-31T10:27:10;99174.63;;;22.29;55.79
54306;BME280;66145;45.188;5.712;2023-07-31T10:29:38;99181.50;;;22.36;55.70
54306;BME280;66145;45.188;5.712;2023-07-31T10:32:04;99187.53;;;22.50;55.45
54306;BME280;66145;45.188;5.712;2023-07-31T10:34:34;99173.63;;;22.46;55.36
54306;BME280;66145;45.188;5.712;2023-07-31T10:40:04;99185.34;;;22.56;55.05
54306;BME280;66145;45.188;5.712;2023-07-31T10:42:30;99179.84;;;22.56;55.00
54306;BME280;66145;45.188;5.712;2023-07-31T10:45:01;99177.44;;;22.54;54.81
54306;BME280;66145;45.188;5.712;2023-07-31T10:47:27;99174.00;;;22.57;55.02
54306;BME280;66145;45.188;5.712;2023-07-31T10:49:53;99157.47;;;22.70;55.86
54306;BME280;66145;45.188;5.712;2023-07-31T10:52:21;99162.41;;;22.64;54.59
54306;BME280;66145;45.188;5.712;2023-07-31T10:54:49;99162.16;;;22.57;55.02
54306;BME280;66145;45.188;5.712;2023-07-31T10:57:21;99165.28;;;22.55;55.27
54306;BME280;66145;45.188;5.712;2023-07-31T10:59:48;99152.38;;;22.47;55.22
54306;BME280;66145;45.188;5.712;2023-07-31T11:02:28;99135.91;;;22.38;55.44
54306;BME280;66145;45.188;5.712;2023-07-31T11:05:06;99152.84;;;22.49;55.45
54306;BME280;66145;45.188;5.712;2023-07-31T11:07:52;99141.09;;;22.40;55.41
54306;BME280;66145;45.188;5.712;2023-07-31T11:10:22;99142.06;;;22.44;55.41
54306;BME280;66145;45.188;5.712;2023-07-31T11:12:48;99141.03;;;22.48;55.51
54306;BME280;66145;45.188;5.712;2023-07-31T11:15:14;99125.06;;;22.54;55.41
54306;BME280;66145;45.188;5.712;2023-07-31T11:17:40;99143.59;;;22.66;55.37
54306;BME280;66145;45.188;5.712;2023-07-31T11:20:06;99129.66;;;22.62;55.61
54306;BME280;66145;45.188;5.712;2023-07-31T11:22:34;99132.31;;;22.59;55.67
54306;BME280;66145;45.188;5.712;2023-07-31T11:25:02;99115.56;;;22.52;55.70
54306;BME280;66145;45.188;5.712;2023-07-31T11:27:28;99106.47;;;22.51;55.52
54306;BME280;66145;45.188;5.712;2023-07-31T11:30:00;99115.66;;;22.55;56.06
54306;BME280;66145;45.188;5.712;2023-07-31T11:32:25;99117.38;;;22.60;55.82
54306;BME280;66145;45.188;5.712;2023-07-31T11:34:54;99117.94;;;22.66;56.36
54306;BME280;66145;45.188;5.712;2023-07-31T11:37:20;99110.50;;;22.66;56.57
54306;BME280;66145;45.188;5.712;2023-07-31T11:40:01;99081.75;;;22.55;56.31
54306;BME280;66145;45.188;5.712;2023-07-31T11:42:26;99101.53;;;22.69;56.41
54306;BME280;66145;45.188;5.712;2023-07-31T11:44:51;99079.00;;;22.55;57.01
54306;BME280;66145;45.188;5.712;2023-07-31T11:47:17;99090.75;;;22.64;56.84
54306;BME280;66145;45.188;5.712;2023-07-31T11:49:43;99085.13;;;22.60;57.12
54306;BME280;66145;45.188;5.712;2023-07-31T11:52:09;99086.94;;;22.69;56.76
54306;BME280;66145;45.188;5.712;2023-07-31T11:54:36;99043.06;;;22.51;56.98
54306;BME280;66145;45.188;5.712;2023-07-31T11:57:03;99080.38;;;22.73;56.95
54306;BME280;66145;45.188;5.712;2023-07-31T11:59:29;99064.31;;;22.63;57.11
54306;BME280;66145;45.188;5.712;2023-07-31T12:01:54;99054.66;;;22.57;57.35
54306;BME280;66145;45.188;5.712;2023-07-31T12:04:20;99067.28;;;22.70;57.00
54306;BME280;66145;45.188;5.712;2023-07-31T12:06:47;99067.75;;;22.72;56.81
54306;BME280;66145;45.188;5.712;2023-07-31T12:09:14;99031.38;;;22.54;57.10
54306;BME280;66145;45.188;5.712;2023-07-31T12:11:46;99043.41;;;22.62;57.18
54306;BME280;66145;45.188;5.712;2023-07-31T12:14:26;99027.00;;;22.53;56.83
54306;BME280;66145;45.188;5.712;2023-07-31T12:17:00;99050.41;;;22.72;57.25
54306;BME280;66145;45.188;5.712;2023-07-31T12:19:26;99024.03;;;22.58;57.08
54306;BME280;66145;45.188;5.712;2023-07-31T12:21:58;99029.16;;;22.60;57.15
54306;BME280;66145;45.188;5.712;2023-07-31T12:24:26;99015.50;;;22.63;56.90
54306;BME280;66145;45.188;5.712;2023-07-31T12:26:52;98977.38;;;22.41;57.28
54306;BME280;66145;45.188;5.712;2023-07-31T12:29:18;99009.28;;;22.67;57.03
54306;BME280;66145;45.188;5.712;2023-07-31T12:31:43;99007.59;;;22.62;56.95
54306;BME280;66145;45.188;5.712;2023-07-31T12:34:16;99022.03;;;22.71;57.03
54306;BME280;66145;45.188;5.712;2023-07-31T12:36:46;99011.25;;;22.66;56.95
54306;BME280;66145;45.188;5.712;2023-07-31T12:39:14;99012.28;;;22.74;57.04
54306;BME280;66145;45.188;5.712;2023-07-31T12:41:39;98990.59;;;22.60;56.82
54306;BME280;66145;45.188;5.712;2023-07-31T12:44:05;98999.66;;;22.73;57.37
54306;BME280;66145;45.188;5.712;2023-07-31T12:46:30;99000.34;;;22.70;57.32
54306;BME280;66145;45.188;5.712;2023-07-31T12:48:56;98988.75;;;22.64;57.24
54306;BME280;66145;45.188;5.712;2023-07-31T12:51:21;98996.53;;;22.74;57.22
54306;BME280;66145;45.188;5.712;2023-07-31T12:53:46;98983.91;;;22.73;57.01
54306;BME280;66145;45.188;5.712;2023-07-31T12:56:12;98978.63;;;22.68;56.98
54306;BME280;66145;45.188;5.712;2023-07-31T12:58:37;98971.63;;;22.71;56.93
54306;BME280;66145;45.188;5.712;2023-07-31T13:01:02;98972.88;;;22.73;57.03
54306;BME280;66145;45.188;5.712;2023-07-31T13:03:28;98970.56;;;22.75;56.86